TimeMDT,TemperatureF,Dew PointF,Humidity,Sea Level PressureIn,VisibilityMPH,Wind Direction,Wind SpeedMPH,Gust SpeedMPH,PrecipitationIn,Events,Conditions,WindDirDegrees,DateUTC
12:15 AM,56.8,21.9,26,29.98,10.0,West,16.1,24.2,N/A,,Clear,270,2012-10-25 06:15:00
12:35 AM,57.7,20.8,24,29.96,10.0,West,21.9,33.4,N/A,,Clear,260,2012-10-25 06:35:00
12:55 AM,57.2,19.4,23,29.99,10.0,West,19.6,35.7,N/A,,Clear,270,2012-10-25 06:55:00
1:15 AM,50.7,18.5,28,30.02,10.0,NNW,11.5,-,N/A,,Clear,340,2012-10-25 07:15:00
1:35 AM,48.2,19.0,32,30.02,10.0,NNW,8.1,-,N/A,,Clear,330,2012-10-25 07:35:00
1:55 AM,46.9,19.2,33,30.03,10.0,WNW,9.2,-,N/A,,Clear,300,2012-10-25 07:55:00
2:15 AM,48.0,19.4,32,30.03,10.0,WNW,12.7,-,N/A,,Clear,300,2012-10-25 08:15:00
2:35 AM,47.7,19.0,32,30.03,10.0,WNW,10.4,-,N/A,,Clear,300,2012-10-25 08:35:00
2:55 AM,47.5,18.7,32,30.04,10.0,WNW,9.2,18.4,N/A,,Clear,300,2012-10-25 08:55:00
3:15 AM,45.5,18.1,34,30.05,10.0,NW,4.6,-,N/A,,Clear,310,2012-10-25 09:15:00
3:35 AM,42.8,18.1,37,30.06,10.0,Calm,Calm,-,N/A,,Clear,0,2012-10-25 09:35:00
3:55 AM,44.2,18.0,35,30.06,10.0,NNW,3.5,-,N/A,,Clear,330,2012-10-25 09:55:00
4:15 AM,43.7,17.4,35,30.06,10.0,WNW,4.6,-,N/A,,Clear,290,2012-10-25 10:15:00
4:35 AM,43.3,17.6,36,30.06,10.0,NNW,11.5,19.6,N/A,,Clear,330,2012-10-25 10:35:00
4:55 AM,44.6,17.4,34,30.07,10.0,WNW,12.7,-,N/A,,Clear,300,2012-10-25 10:55:00
5:15 AM,43.0,16.5,34,30.08,10.0,NW,9.2,-,N/A,,Clear,310,2012-10-25 11:15:00
6:35 AM,40.1,13.6,34,30.11,10.0,Calm,Calm,-,N/A,,Clear,0,2012-10-25 12:35:00
7:15 AM,38.1,12.6,35,30.12,10.0,East,3.5,-,N/A,,Clear,90,2012-10-25 13:15:00
7:35 AM,39.9,13.1,33,30.13,10.0,Calm,Calm,-,N/A,,Clear,0,2012-10-25 13:35:00
7:55 AM,41.9,12.7,31,30.13,10.0,Calm,Calm,-,N/A,,Clear,0,2012-10-25 13:55:00
8:15 AM,43.7,12.2,28,30.14,10.0,West,3.5,-,N/A,,Clear,280,2012-10-25 14:15:00
8:35 AM,45.0,12.7,27,30.15,10.0,Calm,Calm,-,N/A,,Clear,0,2012-10-25 14:35:00
8:55 AM,47.1,11.8,24,30.15,10.0,NW,11.5,18.4,N/A,,Clear,320,2012-10-25 14:55:00
9:35 AM,50.0,11.1,21,30.15,10.0,NW,17.3,20.7,N/A,,Clear,320,2012-10-25 15:35:00
9:55 AM,50.9,10.4,20,30.16,10.0,NNW,18.4,21.9,N/A,,Clear,330,2012-10-25 15:55:00
10:15 AM,52.2,9.9,18,30.16,10.0,NW,18.4,24.2,N/A,,Clear,320,2012-10-25 16:15:00
10:35 AM,53.4,8.2,16,30.16,10.0,NW,17.3,20.7,N/A,,Clear,320,2012-10-25 16:35:00
10:55 AM,53.8,7.3,15,30.15,10.0,NNW,13.8,-,N/A,,Clear,330,2012-10-25 16:55:00
11:35 AM,55.0,6.8,14,30.15,10.0,NNW,10.4,-,N/A,,Clear,340,2012-10-25 17:35:00
11:55 AM,54.9,6.1,14,30.14,10.0,WNW,4.6,9.2,N/A,,Clear,290,2012-10-25 17:55:00
12:15 PM,56.7,6.6,14,30.14,10.0,WNW,10.4,17.3,N/A,,Clear,290,2012-10-25 18:15:00
12:35 PM,56.8,6.3,13,30.13,10.0,WNW,9.2,-,N/A,,Clear,300,2012-10-25 18:35:00
12:55 PM,57.9,6.4,13,30.13,10.0,WNW,6.9,-,N/A,,Clear,300,2012-10-25 18:55:00
1:15 PM,58.3,6.6,13,30.12,10.0,NNW,5.8,-,N/A,,Clear,330,2012-10-25 19:15:00
1:35 PM,57.4,6.3,13,30.11,10.0,SSW,6.9,-,N/A,,Clear,200,2012-10-25 19:35:00
2:15 PM,59.0,5.0,12,30.10,10.0,West,10.4,-,N/A,,Clear,280,2012-10-25 20:15:00
2:35 PM,60.1,6.8,12,30.10,10.0,WSW,11.5,-,N/A,,Clear,250,2012-10-25 20:35:00
2:55 PM,59.9,6.6,12,30.10,10.0,WSW,11.5,16.1,N/A,,Clear,250,2012-10-25 20:55:00
3:15 PM,60.4,7.2,12,30.10,10.0,West,6.9,10.4,N/A,,Clear,260,2012-10-25 21:15:00
3:35 PM,60.8,7.7,12,30.10,10.0,West,10.4,18.4,N/A,,Clear,270,2012-10-25 21:35:00
3:55 PM,60.8,7.7,12,30.10,10.0,West,4.6,-,N/A,,Clear,260,2012-10-25 21:55:00
4:35 PM,60.8,8.4,13,30.10,10.0,West,10.4,16.1,N/A,,Clear,260,2012-10-25 22:35:00
4:55 PM,60.1,8.2,13,30.10,10.0,WSW,5.8,-,N/A,,Clear,240,2012-10-25 22:55:00
5:15 PM,59.9,8.2,13,30.10,10.0,West,4.6,-,N/A,,Clear,270,2012-10-25 23:15:00
5:35 PM,58.5,8.2,14,30.10,10.0,WNW,4.6,-,N/A,,Clear,290,2012-10-25 23:35:00
5:55 PM,56.3,7.7,14,30.09,10.0,WNW,3.5,-,N/A,,Clear,300,2012-10-25 23:55:00
6:15 PM,55.6,7.7,15,30.10,10.0,Calm,Calm,-,N/A,,Clear,0,2012-10-26 00:15:00
6:35 PM,55.0,7.5,15,30.10,10.0,Calm,Calm,-,N/A,,Clear,0,2012-10-26 00:35:00
6:55 PM,49.1,6.1,17,30.11,10.0,ESE,6.9,-,N/A,,Clear,110,2012-10-26 00:55:00
7:15 PM,47.3,5.5,18,30.11,10.0,ESE,8.1,-,N/A,,Clear,110,2012-10-26 01:15:00
7:35 PM,47.5,6.6,19,30.11,10.0,ESE,5.8,-,N/A,,Clear,120,2012-10-26 01:35:00
7:55 PM,47.5,21.7,36,30.14,10.0,ESE,15.0,-,N/A,,Clear,120,2012-10-26 01:55:00
8:15 PM,46.8,23.2,40,30.14,10.0,ESE,13.8,-,N/A,,Clear,120,2012-10-26 02:15:00
8:35 PM,45.9,24.4,43,30.15,10.0,ESE,18.4,21.9,N/A,,Clear,120,2012-10-26 02:35:00
8:55 PM,45.5,24.8,44,30.16,10.0,ESE,16.1,-,N/A,,Clear,120,2012-10-26 02:55:00
9:55 PM,41.9,25.3,52,30.19,10.0,SSE,9.2,-,N/A,,Clear,160,2012-10-26 03:55:00
10:15 PM,40.3,25.2,55,30.21,10.0,South,3.5,-,N/A,,Clear,190,2012-10-26 04:15:00
10:35 PM,40.3,25.7,56,30.22,10.0,East,4.6,-,N/A,,Clear,90,2012-10-26 04:35:00
10:55 PM,39.2,25.5,58,30.23,10.0,Calm,Calm,-,N/A,,Clear,0,2012-10-26 04:55:00
11:55 PM,35.2,24.4,65,30.25,10.0,East,4.6,-,N/A,,Clear,100,2012-10-26 05:55:00